Time;durP1;ratioP1;P1;durP2;ratioP2;P2;SDS_P1;SDS_P2;PMS_P1;PMS_P2;Temp;Humidity;BMP_temperature;BMP_pressure;BME280_temperature;BME280_humidity;BME280_pressure;Samples;Min_cycle;Max_cycle;Signal;HPM_P1;HPM_P2
2023/04/10 00:01:40;;;;;;;8.88;8.07;;;6.20;99.90;;;;;;5055421;28;20312;-81
2023/04/10 00:04:09;;;;;;;9.40;8.35;;;6.30;99.90;;;;;;5055182;28;20205;-81
2023/04/10 00:06:39;;;;;;;9.07;8.23;;;6.20;99.90;;;;;;5055562;28;20289;-81
2023/04/10 00:09:08;;;;;;;9.88;8.65;;;6.30;99.90;;;;;;5055198;28;20216;-81
2023/04/10 00:11:36;;;;;;;9.20;8.38;;;6.20;99.90;;;;;;5055169;28;20226;-81
2023/04/10 00:14:04;;;;;;;9.85;8.82;;;6.20;99.90;;;;;;5055120;28;20217;-81
2023/04/10 00:16:32;;;;;;;11.90;9.55;;;6.20;99.90;;;;;;5055236;28;20208;-81
2023/04/10 00:19:01;;;;;;;8.70;7.90;;;6.20;99.90;;;;;;5054808;28;20213;-81
2023/04/10 00:21:30;;;;;;;10.27;9.23;;;6.20;99.90;;;;;;5055236;28;20230;-81
2023/04/10 00:23:59;;;;;;;7.82;7.05;;;6.20;99.90;;;;;;5054995;28;20265;-81
2023/04/10 00:26:29;;;;;;;10.27;8.75;;;6.20;99.90;;;;;;5055000;28;20292;-81
2023/04/10 00:28:57;;;;;;;7.85;7.15;;;6.20;99.90;;;;;;5053998;28;20230;-81
2023/04/10 00:31:26;;;;;;;9.32;7.82;;;6.20;99.90;;;;;;5055228;28;20232;-81
2023/04/10 00:33:57;;;;;;;8.30;7.53;;;6.20;99.90;;;;;;5055209;28;20228;-81
2023/04/10 00:36:26;;;;;;;9.55;8.57;;;6.20;99.90;;;;;;5054861;28;20212;-81
2023/04/10 00:38:56;;;;;;;9.68;8.77;;;6.20;99.90;;;;;;5054206;28;20201;-81
2023/04/10 00:41:24;;;;;;;9.40;8.43;;;6.20;99.90;;;;;;5054495;28;20233;-81
2023/04/10 00:43:55;;;;;;;10.48;9.32;;;6.20;99.90;;;;;;5054490;28;20202;-81
2023/04/10 00:46:24;;;;;;;8.75;7.95;;;6.20;99.90;;;;;;5054999;28;20216;-81
2023/04/10 00:48:53;;;;;;;8.38;7.60;;;6.20;99.90;;;;;;5053043;28;20244;-81
2023/04/10 00:51:22;;;;;;;8.13;7.32;;;6.20;99.90;;;;;;5054569;28;20225;-81
2023/04/10 00:53:51;;;;;;;9.48;8.48;;;6.20;99.90;;;;;;5054407;28;20204;-80
2023/04/10 00:56:24;;;;;;;8.90;8.00;;;6.30;99.90;;;;;;5054208;28;20209;-80
2023/04/10 00:58:52;;;;;;;7.63;6.95;;;6.30;99.90;;;;;;5054003;28;20201;-80
2023/04/10 01:01:21;;;;;;;8.60;7.80;;;6.20;99.90;;;;;;5054458;28;20272;-80
2023/04/10 01:03:49;;;;;;;9.02;8.13;;;6.30;99.90;;;;;;5054300;28;20205;-80
2023/04/10 01:06:30;;;;;;;9.00;8.13;;;6.20;99.90;;;;;;5054132;28;20198;-80
2023/04/10 01:09:05;;;;;;;8.90;8.00;;;6.20;99.90;;;;;;5053454;28;20225;-80
2023/04/10 01:11:46;;;;;;;7.95;7.25;;;6.30;99.90;;;;;;5054332;28;20225;-80
2023/04/10 01:14:27;;;;;;;10.02;8.68;;;6.30;99.90;;;;;;5054264;28;20212;-80
2023/04/10 01:17:01;;;;;;;8.60;7.85;;;6.30;99.90;;;;;;5053845;28;20209;-80
2023/04/10 01:19:52;;;;;;;8.52;7.72;;;6.30;99.90;;;;;;5053766;28;20263;-80
2023/04/10 01:22:25;;;;;;;8.93;8.02;;;6.30;99.90;;;;;;5051400;28;20233;-80
2023/04/10 01:25:09;;;;;;;10.27;9.15;;;6.30;99.90;;;;;;5053845;28;20209;-80
2023/04/10 01:27:55;;;;;;;8.23;7.40;;;6.30;99.90;;;;;;5053070;28;20232;-81
2023/04/10 01:30:25;;;;;;;9.45;8.55;;;6.30;99.90;;;;;;5054158;28;20214;-81
2023/04/10 01:32:59;;;;;;;8.50;7.68;;;6.30;99.90;;;;;;5053553;28;20253;-81
2023/04/10 01:35:29;;;;;;;8.82;8.02;;;6.30;99.90;;;;;;5053760;28;20225;-81
2023/04/10 01:37:59;;;;;;;9.00;8.10;;;6.30;99.90;;;;;;5052792;28;20301;-81
2023/04/10 01:40:31;;;;;;;8.70;7.82;;;6.30;99.90;;;;;;5053832;28;20239;-81
2023/04/10 01:43:02;;;;;;;10.40;8.52;;;6.30;99.90;;;;;;5053923;28;20232;-81
2023/04/10 01:45:32;;;;;;;9.80;8.38;;;6.30;99.90;;;;;;5053571;28;20205;-81
2023/04/10 01:48:01;;;;;;;7.53;6.88;;;6.20;99.90;;;;;;5052637;28;20228;-81
2023/04/10 01:50:30;;;;;;;8.35;7.55;;;6.30;99.90;;;;;;5053179;28;20205;-81
2023/04/10 01:53:00;;;;;;;9.88;8.48;;;6.30;99.90;;;;;;5053617;28;20226;-80
2023/04/10 01:55:28;;;;;;;9.63;8.50;;;6.30;99.90;;;;;;5053620;28;20233;-80
2023/04/10 01:57:57;;;;;;;10.43;9.25;;;6.20;99.90;;;;;;5052855;28;20197;-80
2023/04/10 02:00:25;;;;;;;9.23;8.27;;;6.20;99.90;;;;;;5052770;28;20214;-80
2023/04/10 02:02:57;;;;;;;8.05;7.25;;;6.20;99.90;;;;;;5052922;28;20247;-80
2023/04/10 02:05:33;;;;;;;8.88;7.97;;;6.20;99.90;;;;;;5053294;28;20245;-80
2023/04/10 02:08:11;;;;;;;8.32;7.53;;;6.20;99.90;;;;;;5052741;28;20312;-80
2023/04/10 02:10:50;;;;;;;8.95;7.90;;;6.20;99.90;;;;;;5052814;28;20210;-81
2023/04/10 02:13:21;;;;;;;8.55;7.75;;;6.20;99.90;;;;;;5052917;28;20213;-80
2023/04/10 02:15:51;;;;;;;8.05;7.32;;;6.20;99.90;;;;;;5053150;28;20210;-80
2023/04/10 02:18:23;;;;;;;10.23;9.20;;;6.20;99.90;;;;;;5052573;28;20202;-80
2023/04/10 02:20:51;;;;;;;8.88;8.07;;;6.20;99.90;;;;;;5053059;28;20216;-80
2023/04/10 02:23:20;;;;;;;8.80;8.00;;;6.10;99.90;;;;;;5052776;28;20292;-80
2023/04/10 02:25:49;;;;;;;8.57;7.50;;;6.20;99.90;;;;;;5052548;28;20206;-81
2023/04/10 02:28:17;;;;;;;10.70;8.52;;;6.20;99.90;;;;;;5051701;28;20236;-80
2023/04/10 02:30:45;;;;;;;9.05;8.18;;;6.10;99.90;;;;;;5052610;28;20201;-80
2023/04/10 02:33:16;;;;;;;11.25;9.18;;;6.10;99.90;;;;;;5053016;28;20205;-80
2023/04/10 02:35:46;;;;;;;10.07;9.07;;;6.10;99.90;;;;;;5052782;28;20209;-80
2023/04/10 02:38:14;;;;;;;10.50;8.68;;;6.00;99.90;;;;;;5051865;28;20297;-80
2023/04/10 02:40:45;;;;;;;9.65;8.75;;;6.00;99.90;;;;;;5052673;28;20293;-80
2023/04/10 02:43:13;;;;;;;10.38;8.63;;;6.00;99.90;;;;;;5052850;28;20210;-80
2023/04/10 02:45:41;;;;;;;10.35;8.88;;;5.90;99.90;;;;;;5052741;28;20210;-80
2023/04/10 02:48:11;;;;;;;10.45;9.32;;;5.90;99.90;;;;;;5051999;28;20205;-80
2023/04/10 02:50:44;;;;;;;10.65;9.55;;;6.00;99.90;;;;;;5052344;28;20298;-80
2023/04/10 02:53:16;;;;;;;9.65;8.65;;;6.00;99.90;;;;;;5052701;28;20261;-80
2023/04/10 02:55:44;;;;;;;8.98;8.15;;;6.00;99.90;;;;;;5052645;28;20296;-80
2023/04/10 02:58:12;;;;;;;16.33;9.38;;;5.90;99.90;;;;;;5052181;28;20214;-80
2023/04/10 03:00:47;;;;;;;9.48;8.05;;;5.90;99.90;;;;;;5052541;28;20292;-80
2023/04/10 03:03:15;;;;;;;12.10;9.15;;;5.90;99.90;;;;;;5052360;28;20205;-81
2023/04/10 03:05:45;;;;;;;9.82;8.82;;;5.90;99.90;;;;;;5052153;28;20206;-81
2023/04/10 03:08:16;;;;;;;9.20;8.35;;;5.90;99.90;;;;;;5051876;28;20284;-81
2023/04/10 03:10:45;;;;;;;8.15;7.43;;;5.90;99.90;;;;;;5052380;28;20212;-81
2023/04/10 03:13:13;;;;;;;9.70;8.77;;;5.90;99.90;;;;;;5056275;28;20244;-81
2023/04/10 03:15:42;;;;;;;10.60;8.90;;;5.90;99.90;;;;;;5056290;28;20205;-81
2023/04/10 03:18:10;;;;;;;12.95;8.93;;;5.90;99.90;;;;;;5055770;28;20260;-81
2023/04/10 03:20:39;;;;;;;11.18;9.15;;;5.90;99.90;;;;;;5056171;28;20201;-80
2023/04/10 03:23:07;;;;;;;9.18;8.20;;;5.90;99.90;;;;;;5056303;28;20244;-80
2023/04/10 03:25:37;;;;;;;9.02;8.13;;;5.80;99.90;;;;;;5056268;28;20209;-80
2023/04/10 03:28:05;;;;;;;9.40;8.50;;;5.80;99.90;;;;;;5055692;28;20281;-81
2023/04/10 03:30:35;;;;;;;10.00;8.95;;;5.80;99.90;;;;;;5055574;28;20227;-81
2023/04/10 03:33:04;;;;;;;12.77;9.05;;;5.80;99.90;;;;;;5056127;28;20226;-81
2023/04/10 03:35:33;;;;;;;11.50;8.80;;;5.80;99.90;;;;;;5056043;28;20208;-81
2023/04/10 03:38:01;;;;;;;9.07;8.25;;;5.80;99.90;;;;;;5055370;28;20263;-81
2023/04/10 03:40:30;;;;;;;11.48;8.73;;;5.80;99.90;;;;;;5055811;28;20202;-81
2023/04/10 03:43:02;;;;;;;8.68;7.88;;;5.80;99.90;;;;;;5055846;28;20229;-81
2023/04/10 03:45:30;;;;;;;9.40;8.48;;;5.80;99.90;;;;;;5055943;28;20265;-81
2023/04/10 03:48:00;;;;;;;8.38;7.65;;;5.80;99.90;;;;;;5055135;28;20206;-81
2023/04/10 03:50:29;;;;;;;8.02;7.18;;;5.70;99.90;;;;;;5055591;28;20228;-81
2023/04/10 03:52:57;;;;;;;7.90;7.20;;;5.70;99.90;;;;;;5056063;28;20240;-81
2023/04/10 03:55:25;;;;;;;10.20;9.05;;;5.70;99.90;;;;;;5055311;28;20202;-81
2023/04/10 03:57:56;;;;;;;9.68;8.75;;;5.70;99.90;;;;;;5054996;28;20289;-81
2023/04/10 04:00:26;;;;;;;9.25;8.35;;;5.70;99.90;;;;;;5055743;28;20202;-81
2023/04/10 04:02:55;;;;;;;8.90;8.00;;;5.70;99.90;;;;;;5055267;28;20229;-81
2023/04/10 04:05:23;;;;;;;9.98;8.98;;;5.70;99.90;;;;;;5055465;28;20205;-81
2023/04/10 04:07:51;;;;;;;9.32;7.88;;;5.60;99.90;;;;;;5054585;28;20248;-81
2023/04/10 04:10:20;;;;;;;9.38;8.48;;;5.60;99.90;;;;;;5055093;28;20230;-81
2023/04/10 04:12:48;;;;;;;8.57;7.65;;;5.60;99.90;;;;;;5055221;28;20222;-81
2023/04/10 04:15:17;;;;;;;9.77;7.95;;;5.60;99.90;;;;;;5055127;28;20201;-81
2023/04/10 04:17:46;;;;;;;9.43;8.23;;;5.50;99.90;;;;;;5054833;28;20209;-81
2023/04/10 04:20:15;;;;;;;6.93;6.32;;;5.50;99.90;;;;;;5055136;28;20206;-81
2023/04/10 04:22:43;;;;;;;10.25;8.80;;;5.50;99.90;;;;;;5054527;28;20229;-81
2023/04/10 04:25:12;;;;;;;7.68;6.97;;;5.50;99.90;;;;;;5055265;28;20306;-81
2023/04/10 04:27:40;;;;;;;8.82;7.97;;;5.50;99.90;;;;;;5054497;28;20301;-81
2023/04/10 04:30:10;;;;;;;8.68;7.85;;;5.40;99.90;;;;;;5054892;28;20224;-81
2023/04/10 04:32:38;;;;;;;8.18;7.38;;;5.50;99.90;;;;;;5054879;28;20234;-81
2023/04/10 04:35:09;;;;;;;8.10;7.38;;;5.50;99.90;;;;;;5054278;28;20244;-81
2023/04/10 04:37:37;;;;;;;8.20;7.35;;;5.40;99.90;;;;;;5054231;28;20206;-81
2023/04/10 04:40:07;;;;;;;7.60;6.85;;;5.50;99.90;;;;;;5054776;28;20204;-81
2023/04/10 04:42:36;;;;;;;7.53;6.88;;;5.50;99.90;;;;;;5054784;28;20268;-81
2023/04/10 04:45:05;;;;;;;7.85;7.05;;;5.50;99.90;;;;;;5054939;28;20201;-81
2023/04/10 04:47:33;;;;;;;9.07;8.15;;;5.50;99.90;;;;;;5053988;28;20212;-81
2023/04/10 04:50:01;;;;;;;12.60;8.15;;;5.50;99.90;;;;;;5054420;28;20312;-81
2023/04/10 04:52:34;;;;;;;8.85;8.00;;;5.50;99.90;;;;;;5054210;28;20230;-82
2023/04/10 04:55:02;;;;;;;7.32;6.68;;;5.50;99.90;;;;;;5054344;28;20233;-82
2023/04/10 04:57:30;;;;;;;8.05;7.35;;;5.60;99.90;;;;;;5054238;28;20212;-81
2023/04/10 05:00:03;;;;;;;14.57;8.20;;;5.60;99.90;;;;;;5054200;28;20210;-81
2023/04/10 05:02:32;;;;;;;10.50;8.77;;;5.60;99.90;;;;;;5054350;28;20233;-81
2023/04/10 05:05:00;;;;;;;8.30;7.45;;;5.60;99.90;;;;;;5054302;28;20205;-81
2023/04/10 05:07:28;;;;;;;9.82;7.82;;;5.60;99.90;;;;;;5054096;28;20294;-81
2023/04/10 05:09:58;;;;;;;10.07;8.65;;;5.70;99.90;;;;;;5053894;28;20232;-82
2023/04/10 05:12:27;;;;;;;8.65;7.80;;;5.70;99.90;;;;;;5053979;28;20257;-82
2023/04/10 05:14:55;;;;;;;9.48;7.63;;;5.70;99.90;;;;;;5053994;28;20208;-82
2023/04/10 05:17:24;;;;;;;8.43;7.63;;;5.70;99.90;;;;;;5053834;28;20265;-81
2023/04/10 05:19:53;;;;;;;7.80;7.07;;;5.80;99.90;;;;;;5054059;28;20201;-81
2023/04/10 05:22:21;;;;;;;9.77;7.47;;;5.80;99.90;;;;;;5053675;28;20221;-81
2023/04/10 05:24:49;;;;;;;7.70;7.00;;;5.80;99.90;;;;;;5053828;28;20210;-82
2023/04/10 05:27:19;;;;;;;9.30;8.40;;;5.80;99.90;;;;;;5052957;28;20209;-81
2023/04/10 05:29:47;;;;;;;9.38;8.32;;;5.80;99.90;;;;;;5053569;28;20228;-81
2023/04/10 05:32:15;;;;;;;9.80;8.52;;;5.90;99.90;;;;;;5053880;28;20229;-81
2023/04/10 05:34:44;;;;;;;8.35;7.45;;;5.90;99.90;;;;;;5053216;28;20205;-81
2023/04/10 05:37:12;;;;;;;9.23;8.32;;;5.90;99.90;;;;;;5053858;28;20206;-81
2023/04/10 05:39:40;;;;;;;9.30;8.30;;;6.00;99.90;;;;;;5053392;28;20213;-81
2023/04/10 05:42:08;;;;;;;10.70;7.65;;;6.00;99.90;;;;;;5053608;28;20226;-81
2023/04/10 05:44:38;;;;;;;9.88;8.68;;;6.10;99.90;;;;;;5053416;28;20209;-82
2023/04/10 05:47:06;;;;;;;9.95;9.00;;;6.10;99.90;;;;;;5052806;28;20214;-82
2023/04/10 05:49:35;;;;;;;8.52;7.70;;;6.20;99.90;;;;;;5053228;28;20233;-82
2023/04/10 05:52:07;;;;;;;13.73;9.50;;;6.20;99.90;;;;;;5053252;28;20245;-82
2023/04/10 05:54:36;;;;;;;10.77;9.77;;;6.20;99.90;;;;;;5053272;28;20213;-82
2023/04/10 05:57:04;;;;;;;7.93;7.25;;;6.30;99.90;;;;;;5052887;28;20213;-82
2023/04/10 05:59:35;;;;;;;8.45;7.60;;;6.30;99.90;;;;;;5053077;28;20268;-82
2023/04/10 06:02:08;;;;;;;10.90;8.40;;;6.40;99.90;;;;;;5053371;28;20236;-81
2023/04/10 06:04:36;;;;;;;9.45;8.63;;;6.40;99.90;;;;;;5053071;28;20306;-82
2023/04/10 06:07:05;;;;;;;9.90;8.52;;;6.50;99.90;;;;;;5052634;28;20215;-82
2023/04/10 06:09:33;;;;;;;9.65;8.77;;;6.50;99.90;;;;;;5053127;28;20216;-82
2023/04/10 06:12:02;;;;;;;12.35;10.02;;;6.60;99.90;;;;;;5052451;28;20225;-82
2023/04/10 06:14:30;;;;;;;9.02;8.23;;;6.70;99.90;;;;;;5053064;28;20210;-82
2023/04/10 06:16:58;;;;;;;14.18;9.32;;;6.70;99.90;;;;;;5052657;28;20205;-82
2023/04/10 06:19:28;;;;;;;11.35;10.27;;;6.80;99.90;;;;;;5052904;28;20209;-82
2023/04/10 06:21:56;;;;;;;14.00;10.70;;;6.90;99.90;;;;;;5052987;28;20224;-82
2023/04/10 06:24:25;;;;;;;9.32;8.48;;;6.90;99.90;;;;;;5052433;28;20210;-82
2023/04/10 06:26:53;;;;;;;11.00;9.93;;;7.00;99.90;;;;;;5052232;28;20209;-82
2023/04/10 06:29:21;;;;;;;11.30;10.10;;;7.10;99.90;;;;;;5052649;28;20212;-81
2023/04/10 06:31:50;;;;;;;11.52;10.10;;;7.20;99.90;;;;;;5052347;28;20226;-81
2023/04/10 06:34:19;;;;;;;11.45;10.25;;;7.20;99.90;;;;;;5053023;28;20205;-81
2023/04/10 06:36:49;;;;;;;11.70;10.60;;;7.30;99.90;;;;;;5052390;28;20236;-81
2023/04/10 06:39:17;;;;;;;11.25;10.15;;;7.30;99.90;;;;;;5052561;28;20206;-81
2023/04/10 06:41:49;;;;;;;12.27;11.00;;;7.40;99.90;;;;;;5052410;28;20264;-81
2023/04/10 06:44:18;;;;;;;10.13;9.05;;;7.40;99.90;;;;;;5052479;28;20206;-81
2023/04/10 06:46:46;;;;;;;10.73;9.65;;;7.40;99.90;;;;;;5052484;28;20216;-82
2023/04/10 06:49:14;;;;;;;10.93;9.93;;;7.50;99.90;;;;;;5052501;28;20275;-82
2023/04/10 06:51:44;;;;;;;12.98;11.00;;;7.50;99.90;;;;;;5052081;28;20233;-82
2023/04/10 06:54:14;;;;;;;10.32;9.30;;;7.60;99.90;;;;;;5052516;28;20212;-82
2023/04/10 06:56:42;;;;;;;10.70;9.68;;;7.70;99.90;;;;;;5051823;28;20204;-82
2023/04/10 06:59:11;;;;;;;10.18;9.15;;;7.90;99.90;;;;;;5052203;28;20214;-82
2023/04/10 07:01:39;;;;;;;11.60;10.43;;;7.90;99.90;;;;;;5052230;28;20240;-82
2023/04/10 07:04:08;;;;;;;13.82;11.10;;;8.00;99.90;;;;;;5052506;28;20214;-82
2023/04/10 07:06:36;;;;;;;12.18;10.90;;;8.00;99.90;;;;;;5052359;28;20209;-82
2023/04/10 07:09:04;;;;;;;13.55;12.15;;;7.90;99.90;;;;;;5052135;28;20209;-81
2023/04/10 07:11:37;;;;;;;11.02;9.95;;;7.90;99.90;;;;;;5051935;28;20268;-82
2023/04/10 07:14:06;;;;;;;10.50;9.50;;;8.00;99.90;;;;;;5052455;28;20202;-81
2023/04/10 07:16:34;;;;;;;12.93;11.60;;;8.00;99.90;;;;;;5052328;28;20209;-81
2023/04/10 07:19:02;;;;;;;17.88;11.32;;;8.00;99.90;;;;;;5051809;28;20205;-81
2023/04/10 07:21:31;;;;;;;12.30;11.10;;;8.10;99.90;;;;;;5052352;28;20222;-81
2023/04/10 07:24:00;;;;;;;12.80;11.15;;;8.10;99.90;;;;;;5052256;28;20288;-81
2023/04/10 07:26:28;;;;;;;11.18;10.18;;;8.20;99.90;;;;;;5052143;28;20214;-81
2023/04/10 07:28:58;;;;;;;11.75;10.25;;;8.30;99.90;;;;;;5051966;28;20208;-81
2023/04/10 07:31:26;;;;;;;13.57;11.13;;;8.40;99.90;;;;;;5051687;28;20233;-81
2023/04/10 07:33:55;;;;;;;12.52;11.23;;;8.40;99.90;;;;;;5051704;28;20293;-81
2023/04/10 07:36:23;;;;;;;11.32;10.23;;;8.50;99.90;;;;;;5051952;28;20210;-81
2023/04/10 07:38:54;;;;;;;11.32;10.20;;;8.60;99.90;;;;;;5051527;28;20206;-81
2023/04/10 07:41:24;;;;;;;13.55;10.35;;;8.50;99.90;;;;;;5051930;28;20232;-82
2023/04/10 07:43:52;;;;;;;11.57;10.50;;;8.60;99.90;;;;;;5051898;28;20216;-81
2023/04/10 07:46:22;;;;;;;10.77;9.77;;;8.60;99.90;;;;;;5052140;28;20236;-82
2023/04/10 07:48:50;;;;;;;12.48;11.27;;;8.80;99.90;;;;;;5051330;28;20209;-82
2023/04/10 07:51:19;;;;;;;14.02;11.80;;;8.90;99.90;;;;;;5051887;28;20251;-80
2023/04/10 07:53:47;;;;;;;11.98;10.63;;;9.00;99.90;;;;;;5051883;28;20216;-81
2023/04/10 07:56:17;;;;;;;12.23;11.00;;;9.10;99.90;;;;;;5051964;28;20208;-81
2023/04/10 07:58:48;;;;;;;10.25;9.18;;;9.30;99.90;;;;;;5054089;28;20208;-80
2023/04/10 08:01:16;;;;;;;10.82;9.85;;;9.30;99.90;;;;;;5055496;28;20225;-80
2023/04/10 08:03:46;;;;;;;12.43;10.43;;;9.50;99.90;;;;;;5055861;28;20289;-81
2023/04/10 08:06:15;;;;;;;11.38;10.32;;;9.50;99.90;;;;;;5055811;28;20236;-80
2023/04/10 08:08:44;;;;;;;11.25;10.10;;;9.70;99.90;;;;;;5054929;28;20210;-80
2023/04/10 08:11:25;;;;;;;11.85;10.65;;;9.90;99.90;;;;;;5055206;28;20272;-80
2023/04/10 08:13:53;;;;;;;11.20;10.15;;;10.10;99.90;;;;;;5055211;28;20209;-81
2023/04/10 08:16:25;;;;;;;15.43;12.85;;;10.30;99.90;;;;;;5055228;28;20210;-81
2023/04/10 08:18:56;;;;;;;12.90;11.60;;;10.50;99.90;;;;;;5054658;28;20209;-80
2023/04/10 08:21:26;;;;;;;11.32;10.15;;;10.90;99.90;;;;;;5055026;28;20283;-80
2023/04/10 08:23:56;;;;;;;10.60;9.60;;;11.30;99.90;;;;;;5055258;28;20269;-80
2023/04/10 08:26:25;;;;;;;13.65;12.20;;;11.60;99.90;;;;;;5054839;28;20292;-80
2023/04/10 08:28:55;;;;;;;12.35;11.15;;;12.00;99.90;;;;;;5054825;28;20210;-80
2023/04/10 08:31:26;;;;;;;12.60;10.63;;;12.60;99.90;;;;;;5054768;28;20233;-80
2023/04/10 08:33:56;;;;;;;13.10;11.80;;;13.10;99.90;;;;;;5054973;28;20210;-80
2023/04/10 08:36:26;;;;;;;12.57;11.38;;;13.40;99.90;;;;;;5054767;28;20210;-81
2023/04/10 08:38:54;;;;;;;14.02;12.45;;;13.70;99.90;;;;;;5054184;28;20234;-81
2023/04/10 08:41:23;;;;;;;14.35;12.70;;;14.00;99.90;;;;;;5054915;28;20230;-81
2023/04/10 08:43:51;;;;;;;12.25;11.15;;;14.20;99.90;;;;;;5054727;28;20208;-81
2023/04/10 08:46:21;;;;;;;16.58;13.15;;;14.00;99.90;;;;;;5054206;28;20292;-81
2023/04/10 08:48:55;;;;;;;12.38;11.27;;;14.10;99.90;;;;;;5051758;28;20268;-81
2023/04/10 08:51:31;;;;;;;12.20;11.10;;;13.90;99.90;;;;;;5052432;28;20236;-81
2023/04/10 08:54:06;;;;;;;12.60;11.43;;;13.20;99.90;;;;;;5052424;28;20205;-81
2023/04/10 08:56:37;;;;;;;13.05;11.77;;;13.10;99.90;;;;;;5052102;28;20205;-81
2023/04/10 08:59:07;;;;;;;13.43;12.02;;;13.30;99.90;;;;;;5052276;28;20209;-81
2023/04/10 09:01:35;;;;;;;14.73;12.23;;;13.70;99.90;;;;;;5052090;28;20237;-81
2023/04/10 09:04:05;;;;;;;13.85;12.25;;;14.00;99.90;;;;;;5052132;28;20218;-81
2023/04/10 09:06:38;;;;;;;13.60;12.27;;;14.50;99.90;;;;;;5052061;28;20206;-81
2023/04/10 09:09:06;;;;;;;13.70;12.50;;;14.40;99.90;;;;;;5051216;28;20220;-81
2023/04/10 09:12:04;;;;;;;14.07;12.65;;;14.40;99.90;;;;;;5051864;28;20297;-81
2023/04/10 09:14:34;;;;;;;14.55;13.23;;;14.90;99.90;;;;;;4999278;28;20293;-81
2023/04/10 09:17:19;;;;;;;15.90;12.52;;;15.20;99.90;;;;;;5051187;28;20221;-81
2023/04/10 09:19:50;;;;;;;18.08;12.75;;;15.50;99.90;;;;;;5052161;28;20216;-81
2023/04/10 09:22:30;;;;;;;13.88;12.45;;;15.70;99.90;;;;;;5051759;28;20225;-81
2023/04/10 09:25:00;;;;;;;12.95;11.75;;;15.90;99.90;;;;;;5051885;28;20261;-81
2023/04/10 09:27:31;;;;;;;14.13;12.73;;;16.30;99.90;;;;;;5051406;28;20218;-81
2023/04/10 09:29:59;;;;;;;13.68;12.13;;;16.60;99.90;;;;;;5051629;28;20296;-81
2023/04/10 09:32:39;;;;;;;12.38;11.15;;;17.00;99.90;;;;;;5051153;28;20236;-81
2023/04/10 09:35:09;;;;;;;13.68;12.23;;;17.50;99.90;;;;;;5052239;28;20217;-81
2023/04/10 09:37:41;;;;;;;13.48;12.25;;;17.50;99.90;;;;;;5050909;28;20218;-81
2023/04/10 09:40:21;;;;;;;13.63;11.52;;;17.50;99.90;;;;;;5051633;28;20213;-81
2023/04/10 09:42:50;;;;;;;12.48;11.45;;;17.80;99.90;;;;;;5051223;28;20225;-81
2023/04/10 09:45:19;;;;;;;14.90;13.38;;;17.90;99.70;;;;;;5051379;28;20260;-81
2023/04/10 09:48:02;;;;;;;14.02;12.75;;;18.00;99.90;;;;;;5050388;28;20214;-81
2023/04/10 09:50:41;;;;;;;14.45;13.05;;;18.10;99.90;;;;;;5051171;28;20210;-81
2023/04/10 09:53:13;;;;;;;12.52;11.43;;;18.00;99.90;;;;;;5050888;28;20222;-81
2023/04/10 09:55:42;;;;;;;12.02;10.93;;;18.20;99.00;;;;;;5051439;28;20216;-82
2023/04/10 09:58:12;;;;;;;12.98;11.80;;;18.10;99.40;;;;;;5051767;28;20220;-82
2023/04/10 10:00:42;;;;;;;13.10;11.75;;;17.60;99.90;;;;;;5053567;28;20270;-81
2023/04/10 10:03:15;;;;;;;11.82;10.73;;;17.80;99.20;;;;;;5053419;28;20263;-81
2023/04/10 10:05:45;;;;;;;11.82;10.82;;;18.10;99.10;;;;;;5053344;28;20205;-81
2023/04/10 10:08:15;;;;;;;17.58;11.68;;;18.50;98.80;;;;;;5052499;28;20293;-81
2023/04/10 10:10:51;;;;;;;12.20;11.05;;;18.80;97.20;;;;;;5052869;28;20210;-81
2023/04/10 10:13:24;;;;;;;12.32;11.13;;;18.90;95.50;;;;;;5053083;28;20226;-82
2023/04/10 10:16:01;;;;;;;12.60;11.40;;;18.90;96.00;;;;;;5053088;28;20300;-81
2023/04/10 10:18:39;;;;;;;13.52;12.10;;;19.00;96.80;;;;;;5052660;28;20212;-82
2023/04/10 10:21:09;;;;;;;11.50;10.48;;;19.20;94.80;;;;;;5052477;28;20312;-82
2023/04/10 10:23:42;;;;;;;12.60;11.50;;;19.20;95.40;;;;;;5052785;28;20236;-82
2023/04/10 10:26:10;;;;;;;11.50;10.45;;;19.20;95.20;;;;;;5053178;28;20202;-82
2023/04/10 10:28:41;;;;;;;11.20;10.23;;;19.50;95.70;;;;;;5052408;28;20201;-82
2023/04/10 10:31:12;;;;;;;12.13;10.85;;;19.60;96.10;;;;;;5052310;28;20236;-82
2023/04/10 10:33:41;;;;;;;11.70;10.60;;;19.60;95.10;;;;;;5052889;28;20206;-82
2023/04/10 10:36:17;;;;;;;12.18;10.98;;;19.90;93.70;;;;;;5052732;28;20202;-82
2023/04/10 10:38:53;;;;;;;13.00;11.80;;;20.00;92.20;;;;;;5052384;28;20202;-82
2023/04/10 10:41:29;;;;;;;12.23;11.13;;;19.90;92.20;;;;;;5052583;28;20229;-82
2023/04/10 10:44:13;;;;;;;11.38;10.38;;;20.10;93.70;;;;;;5052151;28;20225;-82
2023/04/10 10:46:48;;;;;;;11.68;10.68;;;20.20;93.10;;;;;;5052150;28;20233;-82
2023/04/10 10:49:17;;;;;;;12.45;11.10;;;20.40;91.20;;;;;;5052674;28;20211;-82
2023/04/10 10:51:47;;;;;;;16.38;10.85;;;19.60;91.00;;;;;;5052815;28;20236;-82
2023/04/10 10:54:33;;;;;;;10.75;9.70;;;19.20;93.60;;;;;;5052694;28;20206;-82
2023/04/10 10:57:05;;;;;;;11.35;10.27;;;19.30;92.90;;;;;;5051971;28;20210;-82
2023/04/10 10:59:57;;;;;;;11.85;10.68;;;19.40;92.30;;;;;;5052557;28;20214;-82
2023/04/10 11:02:26;;;;;;;12.35;11.20;;;19.70;91.80;;;;;;5052057;28;20237;-82
2023/04/10 11:04:55;;;;;;;14.20;11.52;;;19.30;91.80;;;;;;5052555;28;20202;-82
2023/04/10 11:08:01;;;;;;;12.70;11.50;;;19.50;90.90;;;;;;5051890;28;20215;-82
2023/04/10 11:11:01;;;;;;;10.68;9.65;;;19.80;91.50;;;;;;5052286;28;20209;-82
2023/04/10 11:13:30;;;;;;;13.60;11.13;;;20.10;91.00;;;;;;5052446;28;20213;-82
2023/04/10 11:16:00;;;;;;;11.13;10.07;;;20.20;90.10;;;;;;5052471;28;20210;-82
2023/04/10 11:19:03;;;;;;;10.13;9.23;;;20.20;90.50;;;;;;5051314;28;20198;-82
2023/04/10 11:22:15;;;;;;;10.93;9.93;;;20.30;89.30;;;;;;5052550;28;20233;-82
2023/04/10 11:24:54;;;;;;;11.75;10.65;;;20.00;91.00;;;;;;4990791;28;20223;-82
2023/04/10 11:27:45;;;;;;;11.30;10.20;;;20.20;87.70;;;;;;4990177;28;20210;-82
2023/04/10 11:30:35;;;;;;;11.77;10.60;;;20.40;88.70;;;;;;5032459;28;20274;-82
2023/04/10 11:33:05;;;;;;;11.00;9.88;;;20.30;90.10;;;;;;5054177;28;20225;-82
2023/04/10 11:35:33;;;;;;;10.90;9.88;;;20.40;90.30;;;;;;5056167;28;20233;-82
2023/04/10 11:38:15;;;;;;;15.80;9.60;;;20.70;90.60;;;;;;5055436;28;20284;-82
2023/04/10 11:41:03;;;;;;;11.60;10.50;;;21.10;86.80;;;;;;5056163;28;20248;-82
2023/04/10 11:43:34;;;;;;;12.27;9.88;;;21.10;88.00;;;;;;5055578;28;20308;-82
2023/04/10 11:46:06;;;;;;;9.45;8.75;;;21.30;87.20;;;;;;5056257;28;20205;-82
2023/04/10 11:48:35;;;;;;;10.73;9.52;;;21.40;89.10;;;;;;5055086;28;20220;-82
2023/04/10 11:51:08;;;;;;;11.45;10.23;;;21.40;82.20;;;;;;5055901;28;20225;-82
2023/04/10 11:53:36;;;;;;;10.98;9.88;;;21.40;83.10;;;;;;5055602;28;20206;-82
2023/04/10 11:56:14;;;;;;;9.60;8.68;;;21.60;83.80;;;;;;5055575;28;20205;-82
2023/04/10 11:58:44;;;;;;;11.73;10.70;;;21.80;83.70;;;;;;5055318;28;20213;-82
2023/04/10 12:01:14;;;;;;;12.38;11.25;;;21.50;82.30;;;;;;5055504;28;20237;-82
2023/04/10 12:03:44;;;;;;;11.57;10.48;;;20.80;80.80;;;;;;5055537;28;20217;-82
2023/04/10 12:06:14;;;;;;;12.90;10.43;;;20.40;81.90;;;;;;5055460;28;20201;-82
2023/04/10 12:08:46;;;;;;;10.98;9.98;;;20.20;80.80;;;;;;5054877;28;20299;-82
2023/04/10 12:11:17;;;;;;;11.10;9.93;;;19.90;80.50;;;;;;5055414;28;20225;-82
2023/04/10 12:13:48;;;;;;;12.70;9.75;;;19.80;82.90;;;;;;5055664;28;20213;-82
2023/04/10 12:16:16;;;;;;;11.10;8.98;;;20.20;85.70;;;;;;5055290;28;20289;-82
2023/04/10 12:18:45;;;;;;;10.00;9.10;;;20.50;83.50;;;;;;5054846;28;20206;-82
2023/04/10 12:21:14;;;;;;;11.70;10.25;;;20.40;82.80;;;;;;5055137;28;20260;-82
2023/04/10 12:23:42;;;;;;;11.75;10.65;;;20.10;83.40;;;;;;5054892;28;20225;-82
2023/04/10 12:26:13;;;;;;;10.93;9.93;;;19.70;85.00;;;;;;5055201;28;20221;-82
2023/04/10 12:28:49;;;;;;;13.55;11.52;;;19.30;85.70;;;;;;5054768;28;20205;-81
2023/04/10 12:31:19;;;;;;;11.57;9.45;;;18.60;82.60;;;;;;5055391;28;20345;-81
2023/04/10 12:33:47;;;;;;;11.10;9.95;;;18.30;87.10;;;;;;5054996;28;20220;-82
2023/04/10 12:36:22;;;;;;;11.65;10.55;;;18.60;86.20;;;;;;5054920;28;20201;-82
2023/04/10 12:38:50;;;;;;;12.20;10.90;;;19.10;85.60;;;;;;5054658;28;20208;-82
2023/04/10 12:41:26;;;;;;;10.52;9.63;;;19.30;85.10;;;;;;5054935;28;20235;-82
2023/04/10 12:44:07;;;;;;;13.90;10.68;;;19.60;85.70;;;;;;5054661;28;20229;-82
2023/04/10 12:46:37;;;;;;;11.13;10.10;;;19.50;85.00;;;;;;5054921;28;20236;-82
2023/04/10 12:49:11;;;;;;;11.10;10.10;;;19.60;83.70;;;;;;5054908;28;20255;-82
2023/04/10 12:51:43;;;;;;;11.35;10.25;;;19.80;83.50;;;;;;5054555;28;20280;-82
2023/04/10 12:54:12;;;;;;;14.02;10.98;;;19.80;83.30;;;;;;5054368;28;20240;-82
2023/04/10 12:56:46;;;;;;;10.80;9.80;;;19.80;81.10;;;;;;5054129;28;20212;-82
2023/04/10 12:59:14;;;;;;;11.48;9.93;;;19.80;81.80;;;;;;5054003;28;20202;-82
2023/04/10 13:01:46;;;;;;;11.35;9.82;;;20.00;80.80;;;;;;5054270;28;20233;-83
2023/04/10 13:04:14;;;;;;;11.40;10.27;;;20.40;78.80;;;;;;5054395;28;20222;-82